Terminal Aerodrome Forecast
Issued by NWS New Orleans/Baton Rouge, LA

Home | Current Version | Previous Version | Text Only | Print | Product List | Glossary On
Versions: 1 2 3 4 5 6 7 8 9 10 11 12 13 14 15 16 17 18 19 20
908
FTUS44 KLIX 242320
TAFBTR
TAF
KBTR 242320Z 2500/2524 15013KT P6SM BKN040
     FM250400 15014KT P6SM BKN015
     FM250600 15012KT P6SM VCTS BKN015CB
     FM250900 16010KT P6SM BKN015 PROB30 2509/2512 4SM TSRA BKN015CB
     FM251200 17015G35KT 3SM TSRA BKN015CB
     FM251400 21013KT P6SM VCSH BKN050
     FM252100 22012KT P6SM BKN120 PROB30 2521/2524 TSRA OVC040CB=

USA.gov is the U.S. government's official web portal to all federal, state and local government web resources and services.